If you wish to contribute or participate in the discussions about articles you are invited to join SKYbrary as a registered user

 Actions

Lanvéoc-Poulmic Air Base

From SKYbrary Wiki

LFRL
Airport
ICAO: LFRL
Summary
Name Lanvéoc-Poulmic Air Base
Region Europe
Territory France FR.gif
Location , Bretagne
Serving Lanvedoc
Elevation 87.478 m
287 ft
287 ft87.478 m
Type medium airport
Coordinates 48° 16' 54.13" N, 4° 26' 42.06" W
Runways
Designator Length Width Surface ROPS
5/23 1108 m3,635.171 ft
40 m131.234 ft
ASP /
6/24 0 m0 ft
0 m0 ft
UNK /
13/31 650 m2,132.546 ft
54 m177.165 ft
GRS /


METAR
Observation LFRL 241300Z AUTO 20010KT 170V230 CAVOK 25/15 Q1016
Station Lanveoc Poulmic
Date/Time 24 August 2019 13:00:00
Wind direction 200°
Wind speed 10 kts
Lowest cloud amount clouds and visibility OK
Temperature 25°C
Dew point 15°C
Humidity 53%
QNH 1016 hPa
Weather condition n/a